Pagina principale
METAR-TAF:

METAR-TAF

Aeroporti :

Tabarka, Tunisia

latitudine: 36-57N, longitudine: 008-45E, altezza: 20 m

Osservazione

Il bollettino è stato emesso 44 minuti fa, alle 06:00 UTC
Vento 8 kt da sud-ovest
Temperature 23°C
Umidità 73%
Pressione 1013 hPa
Visibilità 10 km o più
Nuvoloso ad un'altezza di 2000 ft

METAR: DTKA 260600Z 22008KT 9999 BKN020 23/18 Q1013 NOSIG

Ora: 07:44 (06:44 UTC)

Previsione

Il bollettino è stato emesso 14 minuti fa, alle 06:30 UTC
Previsione valida dal 26 alle 07 UTC al 26 alle 16 UTC
Vento 8 kt da sud-ovest
Visibilità 10 km o più
Nubi sparse ad un'altezza di 2000 ft

TAF: DTKA 260630Z 2607/2616 22008KT 9999 SCT020

Osservazioni e previsioni meteorologiche di più di 4000 aeroporti (messaggi METAR e TAF).

Le stazioni disponibili sono rappresentate dai dischi gialli e rossi sulla carta.

Puntare il mouse per vedere il nome della stazione.

Clicca sopra per visualizzare le osservazioni e previsioni meteorologiche.

Per cambiare la mappa : fare clic sui pulsanti verdi con una croce nera per ingrandire, il pulsante verde con un trattino per diminuire, o sulla freccia verde per le mappe adiacenti.


METAR-TAF: